createdAt,value
2023-07-08T00:00:23.821Z,6.97
2023-07-08T00:01:01.508Z,6.80
2023-07-08T00:01:35.252Z,6.47
2023-07-08T00:02:13.076Z,6.80
2023-07-08T00:02:46.678Z,7.30
2023-07-08T00:03:21.924Z,6.83
2023-07-08T00:03:55.442Z,6.13
2023-07-08T00:04:28.949Z,6.23
2023-07-08T00:05:02.775Z,6.43
2023-07-08T00:05:39.136Z,6.83
2023-07-08T00:06:20.954Z,6.90
2023-07-08T00:07:00.322Z,5.83
2023-07-08T00:07:33.671Z,6.83
2023-07-08T00:08:16.048Z,6.17
2023-07-08T00:08:50.044Z,6.63
2023-07-08T00:09:23.362Z,6.60
2023-07-08T00:09:56.696Z,6.93
2023-07-08T00:10:30.709Z,6.80
2023-07-08T00:11:12.072Z,6.73
2023-07-08T00:11:45.439Z,6.53
2023-07-08T00:12:21.802Z,6.50
2023-07-08T00:12:58.766Z,6.97
2023-07-08T00:13:34.745Z,6.37
2023-07-08T00:14:08.147Z,6.23
2023-07-08T00:14:41.673Z,6.57
2023-07-08T00:15:15.346Z,6.27
2023-07-08T00:15:49.867Z,6.40
2023-07-08T00:16:25.532Z,6.27
2023-07-08T00:17:01.793Z,5.87
2023-07-08T00:17:35.248Z,5.83
2023-07-08T00:18:20.088Z,6.17
2023-07-08T00:18:53.385Z,5.80
2023-07-08T00:19:26.760Z,6.17
2023-07-08T00:20:02.521Z,6.37
2023-07-08T00:20:51.260Z,6.57
2023-07-08T00:21:27.602Z,6.33
2023-07-08T00:22:02.267Z,5.73
2023-07-08T00:22:37.341Z,6.40
2023-07-08T00:23:11.506Z,5.90
2023-07-08T00:23:47.415Z,6.07
2023-07-08T00:24:20.857Z,6.60
2023-07-08T00:24:55.579Z,6.70
2023-07-08T00:25:30.306Z,6.33
2023-07-08T00:26:11.486Z,5.80
2023-07-08T00:26:45.234Z,6.73
2023-07-08T00:27:22.207Z,7.37
2023-07-08T00:27:56.100Z,6.50
2023-07-08T00:28:29.487Z,6.40
2023-07-08T00:29:04.374Z,6.63
2023-07-08T00:29:38.011Z,6.07
2023-07-08T00:30:31.963Z,5.60
2023-07-08T00:31:11.634Z,6.33
2023-07-08T00:31:45.015Z,6.43
2023-07-08T00:32:18.338Z,6.47
2023-07-08T00:32:56.215Z,6.07
2023-07-08T00:33:30.400Z,6.70
2023-07-08T00:34:04.343Z,6.77
2023-07-08T00:34:37.665Z,6.93
2023-07-08T00:35:11.702Z,6.47
2023-07-08T00:35:46.772Z,6.20
2023-07-08T00:36:20.667Z,7.40
2023-07-08T00:36:54.076Z,7.03
2023-07-08T00:37:30.836Z,7.17
2023-07-08T00:38:16.087Z,6.83
2023-07-08T00:38:49.626Z,7.03
2023-07-08T00:39:26.207Z,7.13
2023-07-08T00:40:02.887Z,7.03
2023-07-08T00:40:36.673Z,7.27
2023-07-08T00:41:25.261Z,7.03
2023-07-08T00:42:02.843Z,6.87
2023-07-08T00:42:36.375Z,6.23
2023-07-08T00:43:10.760Z,6.63
2023-07-08T00:43:51.594Z,6.20
2023-07-08T00:44:25.695Z,7.17
2023-07-08T00:44:59.697Z,7.17
2023-07-08T00:46:02.131Z,6.87
2023-07-08T00:47:09.060Z,6.37
2023-07-08T00:47:44.193Z,6.33
2023-07-08T00:48:26.730Z,6.53
2023-07-08T00:49:52.120Z,6.30
2023-07-08T00:50:25.484Z,6.20
2023-07-08T00:50:59.214Z,6.33
2023-07-08T00:51:32.977Z,6.37
2023-07-08T00:52:30.229Z,6.10
2023-07-08T00:53:32.543Z,6.50
2023-07-08T00:54:23.849Z,6.33
2023-07-08T00:55:07.480Z,6.73
2023-07-08T00:55:40.904Z,6.43
2023-07-08T00:56:26.229Z,6.50
2023-07-08T00:57:04.077Z,6.57
2023-07-08T00:57:45.710Z,6.20
2023-07-08T00:58:21.973Z,6.97
2023-07-08T00:59:19.007Z,6.70
2023-07-08T01:00:13.829Z,6.40
2023-07-08T01:00:47.190Z,6.33
2023-07-08T01:01:21.204Z,6.87
2023-07-08T01:01:58.298Z,6.33
2023-07-08T01:02:37.309Z,6.53
2023-07-08T01:03:11.994Z,6.57
2023-07-08T01:04:05.018Z,6.73
2023-07-08T01:05:02.322Z,6.37
2023-07-08T01:05:39.728Z,6.23
2023-07-08T01:06:14.113Z,6.60
2023-07-08T01:06:58.290Z,7.03
2023-07-08T01:07:34.367Z,6.43
2023-07-08T01:08:10.587Z,5.77
2023-07-08T01:08:44.270Z,6.40
2023-07-08T01:09:18.918Z,6.20
2023-07-08T01:10:17.848Z,6.23
2023-07-08T01:10:56.886Z,6.87
2023-07-08T01:11:32.935Z,7.30
2023-07-08T01:12:14.187Z,7.03
2023-07-08T01:12:52.614Z,6.53
2023-07-08T01:13:26.472Z,6.47
2023-07-08T01:14:04.768Z,6.30
2023-07-08T01:14:43.449Z,6.47
2023-07-08T01:15:17.313Z,7.10
2023-07-08T01:15:53.403Z,7.13
2023-07-08T01:16:27.175Z,6.90
2023-07-08T01:17:00.646Z,6.27
2023-07-08T01:17:34.217Z,6.57
2023-07-08T01:18:11.190Z,6.17
2023-07-08T01:18:53.885Z,6.50
2023-07-08T01:19:35.456Z,6.83
2023-07-08T01:20:16.162Z,6.70
2023-07-08T01:20:49.728Z,6.50
2023-07-08T01:21:40.601Z,7.10
2023-07-08T01:22:13.914Z,5.83
2023-07-08T01:22:47.235Z,6.23
2023-07-08T01:23:20.758Z,6.67
2023-07-08T01:23:54.228Z,6.50
2023-07-08T01:24:31.106Z,6.60
2023-07-08T01:25:06.030Z,6.97
2023-07-08T01:25:39.998Z,6.50
2023-07-08T01:26:13.691Z,6.80
2023-07-08T01:26:48.041Z,6.70
2023-07-08T01:27:22.537Z,7.50
2023-07-08T01:27:58.103Z,7.03
2023-07-08T01:28:32.487Z,6.53
2023-07-08T01:29:08.466Z,6.43
2023-07-08T01:29:42.127Z,6.77
2023-07-08T01:30:17.530Z,6.93
2023-07-08T01:30:52.090Z,7.50
2023-07-08T01:31:26.181Z,7.27
2023-07-08T01:32:03.958Z,6.50
2023-07-08T01:32:45.201Z,6.67
2023-07-08T01:33:25.989Z,6.87
2023-07-08T01:33:59.527Z,6.60
2023-07-08T01:34:34.937Z,6.13
2023-07-08T01:35:14.458Z,6.77
2023-07-08T01:35:50.811Z,6.67
2023-07-08T01:36:26.606Z,7.10
2023-07-08T01:37:04.058Z,6.57
2023-07-08T01:37:48.025Z,6.27
2023-07-08T01:38:27.653Z,6.30
2023-07-08T01:39:01.051Z,6.33
2023-07-08T01:39:34.715Z,6.27
2023-07-08T01:40:32.353Z,7.40
2023-07-08T01:41:05.658Z,6.90
2023-07-08T01:41:38.969Z,6.83
2023-07-08T01:42:12.274Z,6.50
2023-07-08T01:42:45.894Z,6.50
2023-07-08T01:43:19.229Z,6.20
2023-07-08T01:43:52.778Z,6.30
2023-07-08T01:44:37.357Z,7.07
2023-07-08T01:45:20.412Z,6.67
2023-07-08T01:45:55.988Z,6.53
2023-07-08T01:46:29.478Z,7.50
2023-07-08T01:47:21.801Z,6.70
2023-07-08T01:48:20.105Z,6.53
2023-07-08T01:48:58.259Z,6.57
2023-07-08T01:49:37.185Z,6.37
2023-07-08T01:50:12.800Z,6.43
2023-07-08T01:50:59.341Z,6.63
2023-07-08T01:51:33.307Z,6.67
2023-07-08T01:52:08.712Z,6.43
2023-07-08T01:52:42.165Z,6.10
2023-07-08T01:53:31.350Z,6.70
2023-07-08T01:54:06.163Z,6.50
2023-07-08T01:54:39.722Z,6.03
2023-07-08T01:55:13.228Z,6.77
2023-07-08T01:55:46.607Z,6.57
2023-07-08T01:56:20.093Z,6.53
2023-07-08T01:56:59.045Z,6.33
2023-07-08T01:57:33.395Z,6.57
2023-07-08T01:58:07.018Z,6.60
2023-07-08T01:58:43.762Z,6.07
2023-07-08T01:59:17.194Z,6.83
2023-07-08T01:59:51.363Z,7.43
2023-07-08T02:00:25.032Z,6.70
2023-07-08T02:01:00.117Z,7.03
2023-07-08T02:01:33.865Z,6.47
2023-07-08T02:02:07.288Z,6.20
2023-07-08T02:02:40.733Z,6.40
2023-07-08T02:03:14.130Z,6.60
2023-07-08T02:03:47.906Z,6.37
2023-07-08T02:04:22.638Z,7.00
2023-07-08T02:04:56.037Z,6.83
2023-07-08T02:05:29.516Z,6.33
2023-07-08T02:06:04.732Z,6.53
2023-07-08T02:06:38.219Z,6.50
2023-07-08T02:07:16.363Z,6.57
2023-07-08T02:07:55.661Z,6.70
2023-07-08T02:08:29.380Z,6.50
2023-07-08T02:09:03.938Z,6.40
2023-07-08T02:09:37.339Z,7.03
2023-07-08T02:10:11.229Z,7.17
2023-07-08T02:10:50.915Z,7.27
2023-07-08T02:11:24.373Z,6.50
2023-07-08T02:11:58.183Z,6.23
2023-07-08T02:12:31.591Z,6.43
2023-07-08T02:13:05.152Z,6.47
2023-07-08T02:13:41.480Z,6.53
2023-07-08T02:14:14.985Z,6.03
2023-07-08T02:14:48.429Z,6.43
2023-07-08T02:15:21.847Z,6.17
2023-07-08T02:15:56.158Z,6.57
2023-07-08T02:16:29.788Z,6.90
2023-07-08T02:17:06.935Z,7.53
2023-07-08T02:17:40.338Z,7.20
2023-07-08T02:18:13.733Z,7.47
2023-07-08T02:18:48.546Z,6.97
2023-07-08T02:19:23.310Z,6.40
2023-07-08T02:19:57.711Z,6.63
2023-07-08T02:20:31.091Z,7.07
2023-07-08T02:21:04.807Z,6.83
2023-07-08T02:21:38.597Z,5.97
2023-07-08T02:22:12.109Z,6.50
2023-07-08T02:22:45.483Z,6.50
2023-07-08T02:23:19.388Z,6.50
2023-07-08T02:23:54.654Z,7.20
2023-07-08T02:24:28.160Z,7.33
2023-07-08T02:25:01.529Z,7.10
2023-07-08T02:25:34.910Z,7.20
2023-07-08T02:26:08.578Z,7.27
2023-07-08T02:26:44.793Z,6.90
2023-07-08T02:27:18.233Z,7.17
2023-07-08T02:27:55.854Z,6.53
2023-07-08T02:28:29.334Z,6.83
2023-07-08T02:29:03.941Z,6.97
2023-07-08T02:29:39.350Z,6.83
2023-07-08T02:30:12.780Z,6.63
2023-07-08T02:30:47.488Z,7.53
2023-07-08T02:31:22.266Z,6.73
2023-07-08T02:31:56.709Z,7.33
2023-07-08T02:32:35.663Z,6.67
2023-07-08T02:33:11.047Z,6.90
2023-07-08T02:33:44.648Z,7.00
2023-07-08T02:34:19.370Z,6.73
2023-07-08T02:34:53.337Z,7.33
2023-07-08T02:35:31.882Z,6.40
2023-07-08T02:36:05.445Z,6.17
2023-07-08T02:36:39.900Z,7.20
2023-07-08T02:37:15.957Z,6.50
2023-07-08T02:37:49.326Z,6.37
2023-07-08T02:38:22.746Z,6.53
2023-07-08T02:38:57.182Z,6.37
2023-07-08T02:39:30.676Z,6.23
2023-07-08T02:40:04.882Z,6.53
2023-07-08T02:40:38.405Z,6.70
2023-07-08T02:41:12.768Z,6.47
2023-07-08T02:41:46.137Z,6.33
2023-07-08T02:42:19.442Z,6.87
2023-07-08T02:42:52.954Z,6.43
2023-07-08T02:43:26.462Z,6.20
2023-07-08T02:43:59.806Z,6.93
2023-07-08T02:44:33.212Z,6.80
2023-07-08T02:45:07.655Z,6.67
2023-07-08T02:45:46.897Z,6.87
2023-07-08T02:46:23.141Z,6.97
2023-07-08T02:46:57.491Z,6.87
2023-07-08T02:47:30.973Z,6.87
2023-07-08T02:48:04.482Z,7.23
2023-07-08T02:48:42.080Z,7.37
2023-07-08T02:49:15.597Z,6.77
2023-07-08T02:49:49.046Z,7.10
2023-07-08T02:50:22.652Z,7.23
2023-07-08T02:51:04.126Z,7.03
2023-07-08T02:51:37.689Z,6.43
2023-07-08T02:52:11.302Z,6.77
2023-07-08T02:52:44.698Z,7.23
2023-07-08T02:53:18.205Z,6.60
2023-07-08T02:53:51.901Z,7.13
2023-07-08T02:54:25.246Z,6.93
2023-07-08T02:54:58.585Z,7.80
2023-07-08T02:55:32.085Z,7.60
2023-07-08T02:56:05.520Z,7.27
2023-07-08T02:56:38.917Z,7.50
2023-07-08T02:57:12.342Z,6.67
2023-07-08T02:57:45.797Z,6.83
2023-07-08T02:58:19.159Z,6.87
2023-07-08T02:58:52.517Z,6.70
2023-07-08T02:59:25.952Z,6.57
2023-07-08T02:59:59.280Z,7.23
2023-07-08T03:00:32.671Z,7.33
2023-07-08T03:01:43.898Z,6.67
2023-07-08T03:02:17.576Z,6.87
2023-07-08T03:02:51.067Z,7.27
2023-07-08T03:03:24.420Z,7.27
2023-07-08T03:04:01.719Z,7.07
2023-07-08T03:04:40.882Z,6.90
2023-07-08T03:05:14.320Z,6.90
2023-07-08T03:06:00.302Z,7.00
2023-07-08T03:06:34.221Z,7.03
2023-07-08T03:07:13.137Z,6.73
2023-07-08T03:07:46.458Z,6.90
2023-07-08T03:08:19.912Z,7.33
2023-07-08T03:08:53.281Z,7.30
2023-07-08T03:09:27.661Z,6.87
2023-07-08T03:10:01.115Z,6.83
2023-07-08T03:10:34.562Z,7.20
2023-07-08T03:11:09.564Z,7.07
2023-07-08T03:11:43.104Z,7.03
2023-07-08T03:12:16.413Z,7.53
2023-07-08T03:12:49.790Z,6.97
2023-07-08T03:13:23.701Z,7.33
2023-07-08T03:13:58.402Z,7.37
2023-07-08T03:14:31.970Z,7.33
2023-07-08T03:15:06.785Z,6.90
2023-07-08T03:15:40.110Z,6.47
2023-07-08T03:16:14.246Z,7.00
2023-07-08T03:16:47.807Z,7.50
2023-07-08T03:17:23.957Z,6.37
2023-07-08T03:17:58.970Z,6.90
2023-07-08T03:18:32.457Z,6.50
2023-07-08T03:19:06.882Z,6.70
2023-07-08T03:19:40.257Z,6.63
2023-07-08T03:20:13.897Z,6.43
2023-07-08T03:20:49.843Z,6.23
2023-07-08T03:21:24.455Z,7.43
2023-07-08T03:21:58.854Z,7.23
2023-07-08T03:22:32.258Z,6.40
2023-07-08T03:23:05.653Z,6.50
2023-07-08T03:23:40.427Z,6.57
2023-07-08T03:24:18.077Z,6.73
2023-07-08T03:24:52.416Z,7.40
2023-07-08T03:25:28.152Z,7.13
2023-07-08T03:26:02.271Z,6.80
2023-07-08T03:26:35.898Z,7.40
2023-07-08T03:27:09.357Z,6.60
2023-07-08T03:27:44.902Z,7.10
2023-07-08T03:28:18.683Z,7.03
2023-07-08T03:28:52.646Z,7.10
2023-07-08T03:29:27.148Z,7.70
2023-07-08T03:30:00.580Z,7.23
2023-07-08T03:30:35.349Z,6.60
2023-07-08T03:31:11.406Z,6.73
2023-07-08T03:31:46.751Z,7.40
2023-07-08T03:32:20.982Z,7.20
2023-07-08T03:32:56.298Z,7.40
2023-07-08T03:33:30.246Z,6.80
2023-07-08T03:34:03.761Z,7.10
2023-07-08T03:34:37.656Z,7.23
2023-07-08T03:35:11.129Z,7.47
2023-07-08T03:35:44.637Z,7.53
2023-07-08T03:36:25.874Z,7.13
2023-07-08T03:37:00.882Z,7.70
2023-07-08T03:37:34.314Z,7.33
2023-07-08T03:38:07.887Z,7.97
2023-07-08T03:38:41.791Z,7.43
2023-07-08T03:39:18.989Z,7.03
2023-07-08T03:39:52.298Z,6.67
2023-07-08T03:40:25.727Z,6.87
2023-07-08T03:41:00.364Z,6.90
2023-07-08T03:41:34.281Z,6.80
2023-07-08T03:42:07.908Z,6.77
2023-07-08T03:42:44.416Z,6.67
2023-07-08T03:43:17.831Z,6.70
2023-07-08T03:43:54.479Z,6.67
2023-07-08T03:44:28.212Z,6.90
2023-07-08T03:45:01.665Z,6.93
2023-07-08T03:45:35.371Z,6.87
2023-07-08T03:46:13.504Z,6.07
2023-07-08T03:46:53.286Z,6.83
2023-07-08T03:47:27.487Z,6.77
2023-07-08T03:48:01.071Z,6.30
2023-07-08T03:48:34.559Z,6.90
2023-07-08T03:49:09.406Z,6.07
2023-07-08T03:49:42.788Z,5.90
2023-07-08T03:50:25.547Z,6.40
2023-07-08T03:50:59.704Z,6.70
2023-07-08T03:51:39.576Z,7.10
2023-07-08T03:52:17.476Z,6.93
2023-07-08T03:52:55.337Z,6.30
2023-07-08T03:53:30.866Z,5.93
2023-07-08T03:54:06.006Z,5.93
2023-07-08T03:54:42.778Z,6.10
2023-07-08T03:55:16.640Z,6.10
2023-07-08T03:55:50.351Z,6.03
2023-07-08T03:56:23.985Z,6.47
2023-07-08T03:56:57.426Z,7.03
2023-07-08T03:57:32.920Z,6.37
2023-07-08T03:58:06.543Z,6.53
2023-07-08T03:58:45.071Z,6.90
2023-07-08T03:59:20.319Z,6.20
2023-07-08T03:59:54.337Z,6.57
2023-07-08T04:00:27.827Z,6.37
2023-07-08T04:01:02.897Z,6.57
2023-07-08T04:01:37.222Z,6.20
2023-07-08T04:02:12.920Z,6.17
2023-07-08T04:02:47.842Z,6.80
2023-07-08T04:03:26.640Z,5.93
2023-07-08T04:04:01.735Z,5.77
2023-07-08T04:04:36.533Z,6.20
2023-07-08T04:05:19.337Z,6.37
2023-07-08T04:05:52.698Z,6.00
2023-07-08T04:06:27.716Z,6.07
2023-07-08T04:07:01.947Z,5.97
2023-07-08T04:07:36.745Z,6.03
2023-07-08T04:08:10.058Z,6.23
2023-07-08T04:08:43.646Z,6.80
2023-07-08T04:09:17.425Z,6.67
2023-07-08T04:09:51.580Z,7.13
2023-07-08T04:10:24.953Z,6.97
2023-07-08T04:10:58.517Z,6.30
2023-07-08T04:11:32.262Z,6.47
2023-07-08T04:12:06.295Z,6.60
2023-07-08T04:12:41.133Z,6.30
2023-07-08T04:13:14.443Z,6.40
2023-07-08T04:13:48.180Z,6.37
2023-07-08T04:14:21.670Z,6.27
2023-07-08T04:14:55.042Z,6.57
2023-07-08T04:15:29.632Z,6.97
2023-07-08T04:16:08.278Z,6.93
2023-07-08T04:16:49.532Z,7.03
2023-07-08T04:17:24.470Z,6.23
2023-07-08T04:17:58.591Z,5.67
2023-07-08T04:18:32.834Z,6.30
2023-07-08T04:19:14.126Z,6.73
2023-07-08T04:19:47.568Z,7.03
2023-07-08T04:20:21.253Z,6.63
2023-07-08T04:21:31.531Z,5.90
2023-07-08T04:22:06.912Z,7.07
2023-07-08T04:22:40.248Z,6.13
2023-07-08T04:23:13.590Z,6.63
2023-07-08T04:23:46.997Z,6.47
2023-07-08T04:24:20.407Z,5.23
2023-07-08T04:24:53.730Z,6.30
2023-07-08T04:25:29.130Z,6.77
2023-07-08T04:26:03.484Z,6.37
2023-07-08T04:26:37.062Z,6.30
2023-07-08T04:27:19.607Z,6.13
2023-07-08T04:28:00.213Z,6.10
2023-07-08T04:28:34.638Z,6.10
2023-07-08T04:29:20.664Z,6.50
2023-07-08T04:29:53.962Z,5.83
2023-07-08T04:30:27.682Z,6.33
2023-07-08T04:31:01.862Z,6.10
2023-07-08T04:31:35.496Z,5.77
2023-07-08T04:32:09.382Z,5.83
2023-07-08T04:32:44.486Z,6.30
2023-07-08T04:33:18.501Z,7.47
2023-07-08T04:33:51.916Z,6.83
2023-07-08T04:34:25.292Z,6.30
2023-07-08T04:34:58.717Z,6.47
2023-07-08T04:35:32.157Z,7.00
2023-07-08T04:36:11.926Z,7.03
2023-07-08T04:36:45.957Z,6.93
2023-07-08T04:37:22.934Z,6.33
2023-07-08T04:37:56.372Z,6.43
2023-07-08T04:38:29.827Z,6.60
2023-07-08T04:39:07.121Z,6.73
2023-07-08T04:39:40.413Z,6.80
2023-07-08T04:40:20.576Z,6.00
2023-07-08T04:40:55.502Z,6.43
2023-07-08T04:41:29.126Z,6.83
2023-07-08T04:42:03.310Z,5.60
2023-07-08T04:42:38.693Z,5.93
2023-07-08T04:43:13.093Z,6.17
2023-07-08T04:43:46.474Z,5.17
2023-07-08T04:44:20.781Z,5.87
2023-07-08T04:44:54.399Z,6.37
2023-07-08T04:45:27.776Z,6.27
2023-07-08T04:46:02.436Z,6.10
2023-07-08T04:46:43.923Z,5.97
2023-07-08T04:47:17.472Z,6.30
2023-07-08T04:47:53.712Z,5.53
2023-07-08T04:48:28.847Z,6.03
2023-07-08T04:49:04.382Z,5.90
2023-07-08T04:49:37.810Z,6.07
2023-07-08T04:50:12.541Z,6.17
2023-07-08T04:50:49.400Z,6.43
2023-07-08T04:51:22.902Z,5.70
2023-07-08T04:51:56.331Z,6.27
2023-07-08T04:52:29.708Z,7.23
2023-07-08T04:53:03.990Z,6.47
2023-07-08T04:53:37.388Z,6.27
2023-07-08T04:54:11.637Z,5.37
2023-07-08T04:54:45.035Z,6.10
2023-07-08T04:55:20.178Z,6.10
2023-07-08T04:55:57.456Z,5.97
2023-07-08T04:56:50.217Z,5.60
2023-07-08T04:57:23.753Z,5.53
2023-07-08T04:57:57.120Z,5.93
2023-07-08T04:58:30.435Z,6.13
2023-07-08T04:59:05.349Z,6.63
2023-07-08T04:59:38.851Z,6.63
2023-07-08T05:00:18.333Z,6.73
2023-07-08T05:00:52.012Z,6.07
2023-07-08T05:01:25.435Z,6.80
2023-07-08T05:01:58.907Z,6.37
2023-07-08T05:02:32.351Z,6.13
2023-07-08T05:03:06.025Z,6.27
2023-07-08T05:03:39.502Z,6.63
2023-07-08T05:04:16.667Z,5.37
2023-07-08T05:04:50.084Z,6.37
2023-07-08T05:05:23.631Z,6.80
2023-07-08T05:05:57.028Z,6.20
2023-07-08T05:06:30.364Z,6.53
2023-07-08T05:07:04.795Z,6.47
2023-07-08T05:07:38.187Z,5.73
2023-07-08T05:08:13.461Z,5.80
2023-07-08T05:08:46.948Z,6.27
2023-07-08T05:09:20.347Z,6.47
2023-07-08T05:09:57.281Z,6.43
2023-07-08T05:10:31.108Z,6.30
2023-07-08T05:11:05.740Z,5.60
2023-07-08T05:11:39.488Z,6.17
2023-07-08T05:12:12.939Z,6.20
2023-07-08T05:12:48.424Z,6.17
2023-07-08T05:13:22.057Z,5.70
2023-07-08T05:13:56.121Z,6.17
2023-07-08T05:14:32.354Z,5.97
2023-07-08T05:15:07.986Z,6.20
2023-07-08T05:15:41.715Z,6.30
2023-07-08T05:16:15.454Z,6.27
2023-07-08T05:16:49.113Z,5.93
2023-07-08T05:17:22.478Z,6.23
2023-07-08T05:17:55.921Z,5.80
2023-07-08T05:18:29.360Z,5.57
2023-07-08T05:19:02.906Z,5.70
2023-07-08T05:19:37.495Z,5.87
2023-07-08T05:20:15.694Z,5.37
2023-07-08T05:20:55.540Z,5.13
2023-07-08T05:21:34.461Z,5.77
2023-07-08T05:22:07.903Z,6.50
2023-07-08T05:22:43.873Z,6.37
2023-07-08T05:23:18.966Z,5.83
2023-07-08T05:23:52.538Z,6.30
2023-07-08T05:24:25.889Z,6.07
2023-07-08T05:24:59.331Z,6.33
2023-07-08T05:25:34.400Z,5.90
2023-07-08T05:26:08.954Z,6.30
2023-07-08T05:26:42.390Z,6.13
2023-07-08T05:27:16.277Z,6.03
2023-07-08T05:27:49.862Z,5.33
2023-07-08T05:28:25.095Z,5.57
2023-07-08T05:28:58.513Z,5.93
2023-07-08T05:29:31.898Z,5.47
2023-07-08T05:30:08.173Z,5.13
2023-07-08T05:30:42.964Z,5.50
2023-07-08T05:31:16.380Z,6.43
2023-07-08T05:31:49.841Z,6.03
2023-07-08T05:32:23.812Z,5.57
2023-07-08T05:32:57.281Z,6.20
2023-07-08T05:33:33.063Z,6.10
2023-07-08T05:34:06.720Z,5.93
2023-07-08T05:34:40.064Z,5.80
2023-07-08T05:35:13.485Z,6.17
2023-07-08T05:35:47.309Z,5.80
2023-07-08T05:36:20.635Z,5.97
2023-07-08T05:36:54.039Z,5.57
2023-07-08T05:37:30.509Z,5.63
2023-07-08T05:38:03.896Z,4.90
2023-07-08T05:38:38.392Z,5.17
2023-07-08T05:39:11.922Z,5.50
2023-07-08T05:39:45.451Z,5.43
2023-07-08T05:40:18.987Z,5.87
2023-07-08T05:40:56.591Z,5.83
2023-07-08T05:41:29.990Z,6.33
2023-07-08T05:42:04.028Z,5.97
2023-07-08T05:42:38.452Z,6.23
2023-07-08T05:43:13.176Z,5.43
2023-07-08T05:43:47.777Z,5.27
2023-07-08T05:44:21.617Z,5.37
2023-07-08T05:44:55.972Z,5.50
2023-07-08T05:45:29.322Z,5.20
2023-07-08T05:46:11.301Z,4.90
2023-07-08T05:46:45.920Z,5.33
2023-07-08T05:47:19.436Z,5.97
2023-07-08T05:47:52.799Z,5.20
2023-07-08T05:48:26.733Z,5.27
2023-07-08T05:49:01.919Z,5.67
2023-07-08T05:49:35.827Z,5.83
2023-07-08T05:50:09.925Z,5.77
2023-07-08T05:50:43.415Z,4.97
2023-07-08T05:51:16.761Z,5.50
2023-07-08T05:51:50.219Z,5.70
2023-07-08T05:52:23.647Z,5.63
2023-07-08T05:52:56.985Z,5.33
2023-07-08T05:53:30.856Z,5.23
2023-07-08T05:54:04.361Z,5.67
2023-07-08T05:54:41.562Z,5.93
2023-07-08T05:55:17.920Z,5.63
2023-07-08T05:55:51.724Z,5.67
2023-07-08T05:56:25.149Z,4.73
2023-07-08T05:56:58.581Z,5.50
2023-07-08T05:57:34.696Z,5.07
2023-07-08T05:58:18.409Z,5.37
2023-07-08T05:58:55.706Z,5.33
2023-07-08T05:59:29.107Z,5.53
2023-07-08T06:00:02.499Z,5.53
2023-07-08T06:00:45.757Z,5.77
2023-07-08T06:01:19.332Z,6.33
2023-07-08T06:01:52.915Z,5.03
2023-07-08T06:02:27.156Z,5.20
2023-07-08T06:03:03.690Z,5.37
2023-07-08T06:03:41.610Z,5.20
2023-07-08T06:04:15.191Z,5.13
2023-07-08T06:04:48.758Z,5.37
2023-07-08T06:05:22.347Z,5.43
2023-07-08T06:05:55.840Z,6.07
2023-07-08T06:06:29.611Z,5.93
2023-07-08T06:07:04.501Z,6.07
2023-07-08T06:07:37.969Z,5.83
2023-07-08T06:08:11.316Z,5.70
2023-07-08T06:08:44.805Z,5.80
2023-07-08T06:09:18.215Z,5.27
2023-07-08T06:09:52.339Z,5.43
2023-07-08T06:10:25.715Z,5.13
2023-07-08T06:10:59.242Z,5.10
2023-07-08T06:11:33.390Z,5.07
2023-07-08T06:12:08.203Z,4.77
2023-07-08T06:12:41.626Z,5.67
2023-07-08T06:13:15.432Z,5.23
2023-07-08T06:13:49.534Z,5.90
2023-07-08T06:14:23.196Z,5.00
2023-07-08T06:14:58.809Z,5.50
2023-07-08T06:15:32.135Z,5.97
2023-07-08T06:16:05.692Z,5.47
2023-07-08T06:16:41.298Z,4.77
2023-07-08T06:17:15.192Z,4.73
2023-07-08T06:17:48.620Z,5.33
2023-07-08T06:18:22.285Z,5.60
2023-07-08T06:18:57.029Z,5.33
2023-07-08T06:19:30.351Z,5.83
2023-07-08T06:20:08.682Z,5.93
2023-07-08T06:20:42.016Z,5.47
2023-07-08T06:21:15.372Z,5.50
2023-07-08T06:21:48.733Z,6.03
2023-07-08T06:22:45.447Z,5.63
2023-07-08T06:23:15.474Z,5.83
2023-07-08T06:23:48.941Z,5.97
2023-07-08T06:24:22.576Z,5.87
2023-07-08T06:24:56.018Z,5.40
2023-07-08T06:25:29.684Z,5.63
2023-07-08T06:26:03.030Z,5.43
2023-07-08T06:26:36.610Z,5.23
2023-07-08T06:27:10.479Z,4.87
2023-07-08T06:27:43.847Z,5.90
2023-07-08T06:28:17.578Z,6.17
2023-07-08T06:28:51.262Z,5.70
2023-07-08T06:29:25.810Z,5.97
2023-07-08T06:29:59.229Z,5.70
2023-07-08T06:30:32.869Z,5.03
2023-07-08T06:31:06.254Z,5.00
2023-07-08T06:31:39.787Z,5.30
2023-07-08T06:32:14.885Z,5.00
2023-07-08T06:32:48.282Z,5.30
2023-07-08T06:33:21.628Z,5.23
2023-07-08T06:33:57.942Z,4.97
2023-07-08T06:34:31.476Z,5.73
2023-07-08T06:35:05.316Z,6.00
2023-07-08T06:35:39.720Z,5.73
2023-07-08T06:36:13.539Z,5.60
2023-07-08T06:36:47.040Z,5.53
2023-07-08T06:37:20.409Z,6.00
2023-07-08T06:37:53.836Z,6.77
2023-07-08T06:38:27.214Z,5.90
2023-07-08T06:39:00.795Z,5.87
2023-07-08T06:39:34.266Z,5.20
2023-07-08T06:40:09.873Z,6.20
2023-07-08T06:40:43.236Z,5.87
2023-07-08T06:41:16.641Z,5.90
2023-07-08T06:41:50.120Z,5.43
2023-07-08T06:42:24.783Z,5.60
2023-07-08T06:43:07.342Z,4.60
2023-07-08T06:44:02.148Z,4.77
2023-07-08T06:44:39.125Z,5.10
2023-07-08T06:45:12.607Z,4.80
2023-07-08T06:45:46.113Z,4.60
2023-07-08T06:46:20.237Z,4.67
2023-07-08T06:46:54.068Z,4.77
2023-07-08T06:47:27.506Z,5.27
2023-07-08T06:48:01.000Z,5.10
2023-07-08T06:48:34.865Z,5.13
2023-07-08T06:49:10.149Z,5.23
2023-07-08T06:49:43.435Z,5.73
2023-07-08T06:50:16.877Z,5.83
2023-07-08T06:50:50.449Z,5.90
2023-07-08T06:51:23.941Z,5.53
2023-07-08T06:52:01.092Z,6.13
2023-07-08T06:52:38.303Z,6.03
2023-07-08T06:53:11.660Z,5.83
2023-07-08T06:53:46.501Z,6.30
2023-07-08T06:54:19.876Z,5.70
2023-07-08T06:54:53.236Z,5.80
2023-07-08T06:55:26.823Z,5.53
2023-07-08T06:56:00.562Z,5.23
2023-07-08T06:56:33.914Z,5.30
2023-07-08T06:57:08.036Z,5.47
2023-07-08T06:57:42.526Z,5.37
2023-07-08T06:58:16.060Z,5.63
2023-07-08T06:58:49.380Z,5.50
2023-07-08T06:59:22.974Z,5.97
2023-07-08T06:59:56.336Z,6.07
2023-07-08T07:00:29.724Z,5.07
2023-07-08T07:01:03.239Z,5.27
2023-07-08T07:01:38.228Z,5.23
2023-07-08T07:02:11.910Z,4.73
2023-07-08T07:02:45.393Z,5.60
2023-07-08T07:03:18.994Z,5.30
2023-07-08T07:03:52.483Z,5.80
2023-07-08T07:04:26.011Z,5.37
2023-07-08T07:04:59.415Z,5.47
2023-07-08T07:05:32.868Z,4.57
2023-07-08T07:06:06.162Z,5.03
2023-07-08T07:06:39.545Z,4.60
2023-07-08T07:07:13.332Z,4.47
2023-07-08T07:07:49.450Z,5.00
2023-07-08T07:08:22.805Z,4.80
2023-07-08T07:08:56.299Z,5.03
2023-07-08T07:09:29.811Z,4.97
2023-07-08T07:10:04.466Z,4.57
2023-07-08T07:10:39.738Z,4.70
2023-07-08T07:11:13.129Z,4.80
2023-07-08T07:11:46.458Z,4.37
2023-07-08T07:12:19.775Z,4.33
2023-07-08T07:12:53.271Z,4.37
2023-07-08T07:13:29.679Z,5.03
2023-07-08T07:14:03.853Z,4.90
2023-07-08T07:15:16.892Z,4.60
2023-07-08T07:15:52.745Z,4.67
2023-07-08T07:16:26.681Z,5.00
2023-07-08T07:17:07.436Z,4.73
2023-07-08T07:17:41.989Z,4.87
2023-07-08T07:18:15.444Z,4.83
2023-07-08T07:18:48.925Z,4.43
2023-07-08T07:19:22.737Z,4.70
2023-07-08T07:19:56.249Z,3.90
2023-07-08T07:20:30.329Z,4.93
2023-07-08T07:21:04.616Z,5.97
2023-07-08T07:21:39.334Z,4.93
2023-07-08T07:22:16.709Z,5.20
2023-07-08T07:22:50.174Z,4.30
2023-07-08T07:23:23.750Z,4.20
2023-07-08T07:23:57.073Z,4.03
2023-07-08T07:24:30.455Z,4.57
2023-07-08T07:25:05.086Z,4.57
2023-07-08T07:25:38.633Z,4.47
2023-07-08T07:26:12.644Z,4.00
2023-07-08T07:26:46.318Z,4.13
2023-07-08T07:27:22.900Z,4.60
2023-07-08T07:27:56.520Z,4.83
2023-07-08T07:28:29.884Z,4.27
2023-07-08T07:29:03.514Z,4.17
2023-07-08T07:29:48.233Z,4.30
2023-07-08T07:30:21.772Z,4.40
2023-07-08T07:31:00.425Z,4.33
2023-07-08T07:31:34.046Z,4.13
2023-07-08T07:32:08.505Z,4.67
2023-07-08T07:32:45.528Z,4.87
2023-07-08T07:33:18.971Z,6.27
2023-07-08T07:33:52.772Z,5.13
2023-07-08T07:34:26.145Z,4.60
2023-07-08T07:35:00.780Z,4.67
2023-07-08T07:35:34.254Z,4.80
2023-07-08T07:36:07.621Z,4.07
2023-07-08T07:36:41.045Z,4.23
2023-07-08T07:37:16.568Z,4.60
2023-07-08T07:37:50.234Z,4.20
2023-07-08T07:38:30.080Z,4.37
2023-07-08T07:39:03.819Z,4.40
2023-07-08T07:39:37.294Z,4.00
2023-07-08T07:40:16.824Z,4.13
2023-07-08T07:40:54.625Z,4.10
2023-07-08T07:41:27.990Z,3.73
2023-07-08T07:42:01.607Z,4.00
2023-07-08T07:42:34.980Z,4.33
2023-07-08T07:43:08.560Z,4.03
2023-07-08T07:43:41.952Z,4.17
2023-07-08T07:44:15.317Z,3.93
2023-07-08T07:44:48.909Z,3.77
2023-07-08T07:45:23.872Z,4.17
2023-07-08T07:45:57.769Z,4.07
2023-07-08T07:46:31.726Z,4.47
2023-07-08T07:47:05.741Z,4.10
2023-07-08T07:47:39.797Z,3.63
2023-07-08T07:48:16.830Z,4.23
2023-07-08T07:48:51.537Z,3.67
2023-07-08T07:49:25.015Z,4.00
2023-07-08T07:49:59.597Z,3.40
2023-07-08T07:50:33.193Z,3.53
2023-07-08T07:51:12.137Z,3.77
2023-07-08T07:51:45.502Z,3.70
2023-07-08T07:52:24.961Z,4.20
2023-07-08T07:52:58.347Z,3.93
2023-07-08T07:53:32.336Z,4.13
2023-07-08T07:54:05.710Z,4.47